Time,TemperatureF,DewpointF,PressureIn,WindDirection,WindDirectionDegrees,WindSpeedMPH,WindSpeedGustMPH,Humidity,HourlyPrecipIn,Conditions,Clouds,dailyrainin,SoftwareType,DateUTC
2013-12-21 00:11:00,71.1,69.2,29.86,SE,135,13.4,-999.0,94,-99.99,,,0.00,Acu-Link.com,2013-12-21 06:11:00,
2013-12-21 00:26:00,70.9,69.1,29.85,SSE,157,9.8,-999.0,94,-99.99,,,0.00,Acu-Link.com,2013-12-21 06:26:00,
2013-12-21 00:42:00,70.9,69.1,29.84,SE,135,6.7,-999.0,94,-99.99,,,0.00,Acu-Link.com,2013-12-21 06:42:00,
2013-12-21 00:57:00,70.7,68.9,29.84,SSE,157,7.4,-999.0,94,-99.99,,,0.00,Acu-Link.com,2013-12-21 06:57:00,
2013-12-21 01:12:00,70.9,69.1,29.84,SSE,157,8.9,-999.0,94,-99.99,,,0.00,Acu-Link.com,2013-12-21 07:12:00,
2013-12-21 01:27:00,70.9,69.1,29.83,South,180,12.5,-999.0,94,-99.99,,,0.00,Acu-Link.com,2013-12-21 07:27:00,
2013-12-21 01:42:00,70.9,69.1,29.82,SSE,157,11.9,-999.0,94,-99.99,,,0.00,Acu-Link.com,2013-12-21 07:42:00,
2013-12-21 01:58:00,70.9,69.1,29.81,SE,135,8.9,-999.0,94,-99.99,,,0.00,Acu-Link.com,2013-12-21 07:58:00,
2013-12-21 02:13:00,70.9,69.1,29.80,SE,135,14.5,-999.0,94,-99.99,,,0.00,Acu-Link.com,2013-12-21 08:13:00,
2013-12-21 02:28:00,70.9,69.1,29.80,SSE,157,12.5,-999.0,94,-99.99,,,0.00,Acu-Link.com,2013-12-21 08:28:00,
2013-12-21 02:43:00,70.9,69.1,29.79,South,180,10.3,-999.0,94,-99.99,,,0.00,Acu-Link.com,2013-12-21 08:43:00,
2013-12-21 02:59:00,70.7,69.2,29.79,SE,135,14.5,-999.0,95,-99.99,,,0.00,Acu-Link.com,2013-12-21 08:59:00,
2013-12-21 03:14:00,70.7,69.2,29.78,SSE,157,9.8,-999.0,95,-99.99,,,0.00,Acu-Link.com,2013-12-21 09:14:00,
2013-12-21 03:29:00,70.7,69.5,29.78,ESE,112,13.0,-999.0,96,-99.99,,,0.00,Acu-Link.com,2013-12-21 09:29:00,
2013-12-21 03:44:00,70.5,69.3,29.77,SSE,157,9.8,-999.0,96,-99.99,,,0.00,Acu-Link.com,2013-12-21 09:44:00,
2013-12-21 04:00:00,70.5,69.3,29.77,ESE,112,12.5,-999.0,96,-99.99,,,0.00,Acu-Link.com,2013-12-21 10:00:00,
2013-12-21 04:15:00,70.7,69.5,29.75,SSE,157,11.4,-999.0,96,-99.99,,,0.00,Acu-Link.com,2013-12-21 10:15:00,
2013-12-21 04:30:00,70.9,69.7,29.75,SSE,157,8.9,-999.0,96,-99.99,,,0.00,Acu-Link.com,2013-12-21 10:30:00,
2013-12-21 04:45:00,71.4,69.9,29.74,SE,135,11.9,-999.0,95,-99.99,,,0.00,Acu-Link.com,2013-12-21 10:45:00,
2013-12-21 05:00:00,71.4,69.6,29.74,SSE,157,8.3,-999.0,94,-99.99,,,0.00,Acu-Link.com,2013-12-21 11:00:00,
2013-12-21 05:16:00,71.6,69.8,29.73,SSE,157,17.7,-999.0,94,-99.99,,,0.00,Acu-Link.com,2013-12-21 11:16:00,
2013-12-21 05:31:00,71.8,70.0,29.73,South,180,13.4,-999.0,94,-99.99,,,0.00,Acu-Link.com,2013-12-21 11:31:00,
2013-12-21 05:46:00,71.8,70.0,29.74,SSE,157,11.9,-999.0,94,-99.99,,,0.00,Acu-Link.com,2013-12-21 11:46:00,
2013-12-21 06:01:00,71.8,69.6,29.73,South,180,13.4,-999.0,93,-99.99,,,0.00,Acu-Link.com,2013-12-21 12:01:00,
2013-12-21 06:17:00,72.0,69.8,29.74,SE,135,15.0,-999.0,93,-99.99,,,0.00,Acu-Link.com,2013-12-21 12:17:00,
2013-12-21 06:32:00,72.0,69.8,29.74,SSE,157,9.4,-999.0,93,-99.99,,,0.00,Acu-Link.com,2013-12-21 12:32:00,
2013-12-21 06:47:00,72.0,69.8,29.73,South,180,12.5,-999.0,93,-99.99,,,0.00,Acu-Link.com,2013-12-21 12:47:00,
2013-12-21 07:02:00,71.8,69.6,29.74,South,180,11.0,-999.0,93,-99.99,,,0.00,Acu-Link.com,2013-12-21 13:02:00,
2013-12-21 07:18:00,71.8,69.6,29.75,SSE,157,9.8,-999.0,93,-99.99,,,0.00,Acu-Link.com,2013-12-21 13:18:00,
2013-12-21 07:33:00,71.8,69.6,29.75,SSE,157,13.0,-999.0,93,-99.99,,,0.00,Acu-Link.com,2013-12-21 13:33:00,
2013-12-21 07:48:00,71.8,69.6,29.75,SE,135,9.4,-999.0,93,-99.99,,,0.00,Acu-Link.com,2013-12-21 13:48:00,
2013-12-21 08:03:00,71.8,69.6,29.75,South,180,11.4,-999.0,93,-99.99,,,0.00,Acu-Link.com,2013-12-21 14:03:00,
2013-12-21 08:18:00,71.4,69.6,29.74,SSE,157,11.0,-999.0,94,-99.99,,,0.00,Acu-Link.com,2013-12-21 14:18:00,
2013-12-21 08:33:00,71.1,69.9,29.75,SSE,157,11.4,-999.0,96,-99.99,,,0.00,Acu-Link.com,2013-12-21 14:33:00,
2013-12-21 08:49:00,71.1,69.9,29.74,SSE,157,11.4,-999.0,96,-99.99,,,0.00,Acu-Link.com,2013-12-21 14:49:00,
2013-12-21 09:04:00,71.4,70.2,29.75,South,180,16.1,-999.0,96,-99.99,,,0.00,Acu-Link.com,2013-12-21 15:04:00,
2013-12-21 09:19:00,71.2,70.3,29.75,South,180,13.0,-999.0,97,-99.99,,,0.00,Acu-Link.com,2013-12-21 15:19:00,
2013-12-21 09:34:00,71.8,70.6,29.75,SSE,157,14.1,-999.0,96,-99.99,,,0.00,Acu-Link.com,2013-12-21 15:34:00,
2013-12-21 09:50:00,72.1,70.6,29.75,SE,135,11.9,-999.0,95,-99.99,,,0.00,Acu-Link.com,2013-12-21 15:50:00,
2013-12-21 10:05:00,72.5,70.7,29.74,South,180,10.3,-999.0,94,-99.99,,,0.00,Acu-Link.com,2013-12-21 16:05:00,
2013-12-21 10:20:00,72.9,71.0,29.74,SSE,157,9.8,-999.0,94,-99.99,,,0.00,Acu-Link.com,2013-12-21 16:20:00,
2013-12-21 10:35:00,72.7,70.8,29.73,South,180,14.1,-999.0,94,-99.99,,,0.00,Acu-Link.com,2013-12-21 16:35:00,
2013-12-21 10:50:00,72.3,71.1,29.73,SSE,157,9.8,-999.0,96,-99.99,,,0.01,Acu-Link.com,2013-12-21 16:50:00,
2013-12-21 11:05:00,72.3,71.1,29.72,South,180,13.4,-999.0,96,-99.99,,,0.02,Acu-Link.com,2013-12-21 17:05:00,
2013-12-21 11:21:00,73.0,71.8,29.72,SW,225,5.8,-999.0,96,-99.99,,,0.02,Acu-Link.com,2013-12-21 17:21:00,
2013-12-21 11:36:00,73.2,71.7,29.71,South,180,11.9,-999.0,95,-99.99,,,0.04,Acu-Link.com,2013-12-21 17:36:00,
2013-12-21 11:51:00,74.1,72.0,29.69,SSE,157,13.0,-999.0,93,-99.99,,,0.04,Acu-Link.com,2013-12-21 17:51:00,
2013-12-21 12:06:00,74.3,71.8,29.69,SSE,157,14.5,-999.0,92,-99.99,,,0.04,Acu-Link.com,2013-12-21 18:06:00,
2013-12-21 12:22:00,74.3,71.5,29.68,SSE,157,11.9,-999.0,91,-99.99,,,0.04,Acu-Link.com,2013-12-21 18:22:00,
2013-12-21 12:37:00,73.9,71.5,29.67,SSE,157,18.1,-999.0,92,-99.99,,,0.04,Acu-Link.com,2013-12-21 18:37:00,
2013-12-21 12:52:00,73.9,71.5,29.66,South,180,17.7,-999.0,92,-99.99,,,0.04,Acu-Link.com,2013-12-21 18:52:00,
2013-12-21 13:07:00,73.9,71.8,29.65,South,180,19.0,-999.0,93,-99.99,,,0.04,Acu-Link.com,2013-12-21 19:07:00,
2013-12-21 13:22:00,73.9,71.8,29.64,SSE,157,14.5,-999.0,93,-99.99,,,0.04,Acu-Link.com,2013-12-21 19:22:00,
2013-12-21 13:38:00,74.1,71.6,29.64,SSW,202,14.1,-999.0,92,-99.99,,,0.04,Acu-Link.com,2013-12-21 19:38:00,
2013-12-21 13:53:00,74.3,71.8,29.63,South,180,16.6,-999.0,92,-99.99,,,0.04,Acu-Link.com,2013-12-21 19:53:00,
2013-12-21 14:08:00,74.5,72.0,29.63,SSW,202,16.1,-999.0,92,-99.99,,,0.04,Acu-Link.com,2013-12-21 20:08:00,
2013-12-21 14:24:00,74.3,71.8,29.62,South,180,17.0,-999.0,92,-99.99,,,0.04,Acu-Link.com,2013-12-21 20:24:00,
2013-12-21 14:39:00,74.1,71.6,29.61,SSW,202,11.9,-999.0,92,-99.99,,,0.04,Acu-Link.com,2013-12-21 20:39:00,
2013-12-21 14:54:00,73.9,71.5,29.61,SE,135,14.5,-999.0,92,-99.99,,,0.04,Acu-Link.com,2013-12-21 20:54:00,
2013-12-21 15:09:00,73.8,71.3,29.62,SSW,202,14.5,-999.0,92,-99.99,,,0.04,Acu-Link.com,2013-12-21 21:09:00,
2013-12-21 15:25:00,73.6,71.4,29.62,SSE,157,13.0,-999.0,93,-99.99,,,0.04,Acu-Link.com,2013-12-21 21:25:00,
2013-12-21 15:40:00,73.4,71.2,29.62,SSE,157,12.5,-999.0,93,-99.99,,,0.04,Acu-Link.com,2013-12-21 21:40:00,
2013-12-21 15:55:00,73.4,71.2,29.61,SSE,157,17.0,-999.0,93,-99.99,,,0.04,Acu-Link.com,2013-12-21 21:55:00,
2013-12-21 16:11:00,73.4,71.2,29.62,SSW,202,16.1,-999.0,93,-99.99,,,0.04,Acu-Link.com,2013-12-21 22:11:00,
2013-12-21 16:26:00,72.5,71.3,29.63,SSW,202,12.5,-999.0,96,-99.99,,,0.05,Acu-Link.com,2013-12-21 22:26:00,
2013-12-21 16:41:00,72.5,71.3,29.63,SSW,202,8.9,-999.0,96,-99.99,,,0.05,Acu-Link.com,2013-12-21 22:41:00,
2013-12-21 16:57:00,72.1,71.2,29.64,SSW,202,18.1,-999.0,97,-99.99,,,0.05,Acu-Link.com,2013-12-21 22:57:00,
2013-12-21 17:12:00,72.0,71.1,29.64,South,180,14.5,-999.0,97,-99.99,,,0.05,Acu-Link.com,2013-12-21 23:12:00,
2013-12-21 17:27:00,72.0,71.1,29.64,SSW,202,9.4,-999.0,97,-99.99,,,0.05,Acu-Link.com,2013-12-21 23:27:00,
2013-12-21 17:42:00,72.0,71.1,29.64,SSW,202,8.9,-999.0,97,-99.99,,,0.05,Acu-Link.com,2013-12-21 23:42:00,
2013-12-21 18:11:00,67.6,65.2,29.69,NNW,337,9.4,-999.0,92,-99.99,,,0.05,Acu-Link.com,2013-12-22 00:11:00,
2013-12-21 18:27:00,62.2,62.0,29.71,WNW,292,6.3,-999.0,99,-99.99,,,0.14,Acu-Link.com,2013-12-22 00:27:00,
2013-12-21 18:42:00,61.9,61.6,29.72,NW,315,7.8,-999.0,99,-99.99,,,0.19,Acu-Link.com,2013-12-22 00:42:00,
2013-12-21 18:57:00,61.7,61.4,29.72,North,0,3.1,-999.0,99,-99.99,,,0.35,Acu-Link.com,2013-12-22 00:57:00,
2013-12-21 19:12:00,61.3,61.1,29.73,North,0,3.8,-999.0,99,-99.99,,,0.37,Acu-Link.com,2013-12-22 01:12:00,
2013-12-21 19:27:00,61.2,60.9,29.72,NW,315,2.7,-999.0,99,-99.99,,,0.38,Acu-Link.com,2013-12-22 01:27:00,
2013-12-21 19:43:00,61.2,60.9,29.73,East,90,0.0,-999.0,99,-99.99,,,0.38,Acu-Link.com,2013-12-22 01:43:00,
2013-12-21 19:58:00,61.0,60.7,29.73,East,90,0.0,-999.0,99,-99.99,,,0.38,Acu-Link.com,2013-12-22 01:58:00,
2013-12-21 20:13:00,61.0,60.7,29.73,South,180,5.1,-999.0,99,-99.99,,,0.38,Acu-Link.com,2013-12-22 02:13:00,
2013-12-21 20:28:00,59.0,58.4,29.76,SSW,202,2.2,-999.0,98,-99.99,,,0.67,Acu-Link.com,2013-12-22 02:28:00,
2013-12-21 20:43:00,58.6,57.8,29.75,ESE,112,2.7,-999.0,97,-99.99,,,0.69,Acu-Link.com,2013-12-22 02:43:00,
2013-12-21 20:58:00,58.6,58.1,29.74,ESE,112,0.0,-999.0,98,-99.99,,,0.69,Acu-Link.com,2013-12-22 02:58:00,
2013-12-21 21:14:00,58.6,58.4,29.75,SSE,157,3.1,-999.0,99,-99.99,,,0.69,Acu-Link.com,2013-12-22 03:14:00,
2013-12-21 21:29:00,59.2,58.9,29.77,West,270,0.0,-999.0,99,-99.99,,,0.69,Acu-Link.com,2013-12-22 03:29:00,
2013-12-21 21:44:00,59.4,59.1,29.77,West,270,0.0,-999.0,99,-99.99,,,0.69,Acu-Link.com,2013-12-22 03:44:00,
2013-12-21 21:59:00,59.5,59.3,29.77,WNW,292,1.1,-999.0,99,-99.99,,,0.69,Acu-Link.com,2013-12-22 03:59:00,
2013-12-21 22:15:00,59.4,59.1,29.78,WNW,292,0.0,-999.0,99,-99.99,,,0.69,Acu-Link.com,2013-12-22 04:15:00,
2013-12-21 22:30:00,59.2,58.9,29.78,NNE,22,0.0,-999.0,99,-99.99,,,0.69,Acu-Link.com,2013-12-22 04:30:00,
2013-12-21 22:45:00,58.8,58.5,29.79,NNW,337,0.0,-999.0,99,-99.99,,,0.69,Acu-Link.com,2013-12-22 04:45:00,
2013-12-21 23:00:00,58.3,58.0,29.80,WSW,247,0.0,-999.0,99,-99.99,,,0.69,Acu-Link.com,2013-12-22 05:00:00,
2013-12-21 23:16:00,58.3,58.0,29.81,West,270,0.0,-999.0,99,-99.99,,,0.69,Acu-Link.com,2013-12-22 05:16:00,
2013-12-21 23:31:00,58.3,58.0,29.83,West,270,3.8,-999.0,99,-99.99,,,0.69,Acu-Link.com,2013-12-22 05:31:00,
2013-12-21 23:46:00,58.5,58.2,29.83,West,270,2.7,-999.0,99,-99.99,,,0.69,Acu-Link.com,2013-12-22 05:46:00,